createdAt,value
2019-05-03T00:02:38.723Z,17.95
2019-05-03T00:05:26.557Z,18.37
2019-05-03T00:08:02.254Z,18.35
2019-05-03T00:10:31.774Z,17.82
2019-05-03T00:13:01.892Z,19.10
2019-05-03T00:15:42.817Z,19.70
2019-05-03T00:18:11.968Z,18.00
2019-05-03T00:20:42.264Z,19.27
2019-05-03T00:23:12.813Z,18.75
2019-05-03T00:25:41.813Z,18.77
2019-05-03T00:28:10.828Z,19.32
2019-05-03T00:30:39.454Z,20.43
2019-05-03T00:33:08.783Z,20.02
2019-05-03T00:35:55.715Z,20.43
2019-05-03T00:38:24.345Z,20.85
2019-05-03T00:40:52.989Z,19.75
2019-05-03T00:43:22.278Z,19.62
2019-05-03T00:45:51.695Z,19.15
2019-05-03T00:48:21.982Z,19.10
2019-05-03T00:50:51.774Z,19.30
2019-05-03T00:53:22.227Z,19.98
2019-05-03T00:55:52.475Z,19.80
2019-05-03T00:58:22.384Z,20.77
2019-05-03T01:00:52.465Z,18.73
2019-05-03T01:03:21.909Z,18.95
2019-05-03T01:05:52.935Z,20.77
2019-05-03T01:08:22.188Z,19.23
2019-05-03T01:10:51.668Z,20.10
2019-05-03T01:13:21.960Z,20.43
2019-05-03T01:16:05.680Z,20.37
2019-05-03T01:18:34.565Z,19.17
2019-05-03T01:21:04.821Z,17.95
2019-05-03T01:23:35.379Z,20.55
2019-05-03T01:26:04.324Z,21.20
2019-05-03T01:28:33.018Z,18.70
2019-05-03T01:31:02.657Z,20.05
2019-05-03T01:33:32.145Z,21.52
2019-05-03T01:36:02.934Z,20.25
2019-05-03T01:38:32.019Z,21.82
2019-05-03T01:41:01.726Z,20.08
2019-05-03T01:43:31.783Z,20.30
2019-05-03T01:46:02.754Z,22.07
2019-05-03T01:52:05.303Z,20.32
2019-05-03T01:54:34.255Z,20.27
2019-05-03T01:57:03.435Z,21.62
2019-05-03T01:59:32.244Z,19.92
2019-05-03T02:02:20.443Z,20.00
2019-05-03T02:05:08.860Z,22.48
2019-05-03T02:07:37.588Z,19.98
2019-05-03T02:10:06.592Z,20.00
2019-05-03T02:12:35.315Z,21.35
2019-05-03T02:15:04.925Z,19.87
2019-05-03T02:17:33.587Z,20.10
2019-05-03T02:20:02.521Z,22.82
2019-05-03T02:22:32.786Z,21.95
2019-05-03T02:27:33.236Z,21.60
2019-05-03T02:30:03.015Z,20.85
2019-05-03T02:32:33.191Z,23.25
2019-05-03T02:35:02.835Z,22.97
2019-05-03T02:37:33.031Z,24.32
2019-05-03T02:40:04.168Z,24.12
2019-05-03T02:42:35.604Z,23.02
2019-05-03T02:50:26.036Z,23.40
2019-05-03T02:52:55.305Z,23.83
2019-05-03T02:55:27.826Z,23.87
2019-05-03T02:57:56.873Z,22.58
2019-05-03T03:00:56.105Z,24.80
2019-05-03T03:03:25.906Z,23.10
2019-05-03T03:05:57.253Z,24.05
2019-05-03T03:08:32.998Z,23.20
2019-05-03T03:11:02.455Z,24.72
2019-05-03T03:16:06.814Z,24.10
2019-05-03T03:18:37.521Z,25.75
2019-05-03T03:21:11.888Z,24.67
2019-05-03T03:24:12.730Z,25.43
2019-05-03T03:26:46.891Z,25.35
2019-05-03T03:29:16.323Z,25.50
2019-05-03T03:32:19.206Z,25.55
2019-05-03T03:35:12.117Z,28.07
2019-05-03T03:37:40.413Z,26.95
2019-05-03T03:40:09.145Z,27.45
2019-05-03T03:42:41.366Z,27.73
2019-05-03T03:45:10.372Z,27.55
2019-05-03T03:47:39.394Z,26.37
2019-05-03T03:50:09.057Z,25.82
2019-05-03T03:52:40.585Z,26.48
2019-05-03T03:55:10.010Z,27.40
2019-05-03T03:57:39.172Z,28.12
2019-05-03T04:00:09.127Z,27.00
2019-05-03T04:02:39.170Z,28.40
2019-05-03T04:05:08.146Z,26.42
2019-05-03T04:07:37.467Z,27.15
2019-05-03T04:10:07.411Z,28.32
2019-05-03T04:12:37.085Z,27.93
2019-05-03T04:15:28.682Z,28.27
2019-05-03T04:18:26.062Z,28.47
2019-05-03T04:20:55.940Z,27.58
2019-05-03T04:23:26.428Z,27.67
2019-05-03T04:25:56.679Z,28.12
2019-05-03T04:28:27.686Z,27.13
2019-05-03T04:30:56.604Z,29.12
2019-05-03T04:33:26.960Z,28.35
2019-05-03T04:35:55.874Z,27.25
2019-05-03T04:38:25.564Z,27.10
2019-05-03T04:40:56.116Z,26.77
2019-05-03T04:43:26.460Z,23.05
2019-05-03T04:46:06.873Z,23.83
2019-05-03T04:48:35.975Z,19.60
2019-05-03T04:51:05.873Z,18.37
2019-05-03T04:53:36.626Z,18.67
2019-05-03T04:56:05.724Z,20.05
2019-05-03T04:58:36.485Z,19.12
2019-05-03T05:01:06.536Z,19.15
2019-05-03T05:03:36.138Z,18.05
2019-05-03T05:06:06.248Z,18.53
2019-05-03T05:08:35.844Z,17.27
2019-05-03T05:11:05.863Z,16.57
2019-05-03T05:13:35.744Z,15.75
2019-05-03T05:16:05.907Z,15.90
2019-05-03T05:18:40.451Z,14.38
2019-05-03T05:21:14.994Z,14.30
2019-05-03T05:24:01.236Z,15.32
2019-05-03T05:26:39.281Z,13.25
2019-05-03T05:29:12.155Z,14.20
2019-05-03T05:31:41.025Z,14.38
2019-05-03T05:34:10.061Z,14.18
2019-05-03T05:36:38.747Z,14.55
2019-05-03T05:39:07.950Z,14.10
2019-05-03T05:41:36.613Z,12.33
2019-05-03T05:44:05.480Z,13.35
2019-05-03T05:46:56.803Z,12.07
2019-05-03T05:49:44.358Z,11.63
2019-05-03T05:52:15.485Z,9.85
2019-05-03T05:54:48.168Z,10.20
2019-05-03T05:57:36.762Z,9.45
2019-05-03T06:00:15.204Z,8.95
2019-05-03T06:02:44.718Z,7.08
2019-05-03T06:05:14.814Z,7.37
2019-05-03T06:07:54.619Z,5.33
2019-05-03T06:10:29.157Z,5.80
2019-05-03T06:13:19.801Z,5.67
2019-05-03T06:15:54.809Z,4.87
2019-05-03T06:18:30.059Z,3.90
2019-05-03T06:21:10.270Z,4.37
2019-05-03T06:23:45.142Z,4.22
2019-05-03T06:26:31.957Z,4.90
2019-05-03T06:29:04.634Z,4.40
2019-05-03T06:32:02.239Z,3.83
2019-05-03T06:34:30.929Z,3.80
2019-05-03T06:37:04.369Z,4.28
2019-05-03T06:39:35.061Z,3.85
2019-05-03T06:42:05.061Z,3.35
2019-05-03T06:44:34.922Z,3.22
2019-05-03T06:47:08.705Z,3.75
2019-05-03T06:49:34.646Z,4.47
2019-05-03T06:52:05.798Z,3.55
2019-05-03T06:54:35.376Z,3.65
2019-05-03T06:57:09.496Z,3.35
2019-05-03T06:59:57.677Z,3.52
2019-05-03T07:02:35.565Z,3.35
2019-05-03T07:05:06.763Z,3.67
2019-05-03T07:07:49.738Z,3.87
2019-05-03T07:10:30.966Z,3.90
2019-05-03T07:13:04.982Z,4.03
2019-05-03T07:15:35.113Z,3.33
2019-05-03T07:18:05.737Z,4.45
2019-05-03T07:20:49.311Z,4.22
2019-05-03T07:23:18.983Z,4.12
2019-05-03T07:25:47.331Z,4.40
2019-05-03T07:28:15.693Z,4.03
2019-05-03T07:30:46.525Z,4.17
2019-05-03T07:35:51.554Z,4.58
2019-05-03T07:38:20.893Z,5.40
2019-05-03T07:40:50.154Z,4.30
2019-05-03T07:43:19.042Z,4.20
2019-05-03T07:45:47.873Z,4.72
2019-05-03T07:48:16.405Z,4.65
2019-05-03T07:50:44.893Z,4.92
2019-05-03T07:53:15.051Z,4.65
2019-05-03T07:56:06.646Z,4.45
2019-05-03T07:58:35.346Z,5.08
2019-05-03T08:01:09.965Z,3.70
2019-05-03T08:03:39.191Z,4.12
2019-05-03T08:06:08.231Z,4.70
2019-05-03T08:08:36.747Z,4.50
2019-05-03T08:11:05.495Z,4.90
2019-05-03T08:13:35.553Z,4.78
2019-05-03T08:16:05.939Z,4.67
2019-05-03T08:18:35.690Z,4.05
2019-05-03T08:21:08.191Z,5.33
2019-05-03T08:23:40.991Z,4.87
2019-05-03T08:26:15.188Z,4.80
2019-05-03T08:28:47.481Z,5.20
2019-05-03T08:31:37.750Z,4.70
2019-05-03T08:34:18.363Z,4.85
2019-05-03T08:37:07.291Z,4.50
2019-05-03T08:39:37.235Z,4.87
2019-05-03T08:42:14.980Z,4.67
2019-05-03T08:44:45.321Z,4.35
2019-05-03T08:47:17.860Z,4.53
2019-05-03T08:49:50.442Z,4.40
2019-05-03T08:52:24.831Z,4.85
2019-05-03T08:54:54.989Z,4.85
2019-05-03T08:57:27.525Z,5.15
2019-05-03T09:02:26.842Z,4.30
2019-05-03T09:04:56.019Z,4.95
2019-05-03T09:07:25.444Z,4.67
2019-05-03T09:09:59.260Z,4.70
2019-05-03T09:12:48.113Z,4.60
2019-05-03T09:15:16.905Z,5.28
2019-05-03T09:17:45.240Z,5.30
2019-05-03T09:20:15.573Z,5.65
2019-05-03T09:22:45.291Z,5.70
2019-05-03T09:25:16.407Z,5.90
2019-05-03T09:27:45.211Z,4.55
2019-05-03T09:30:14.687Z,5.17
2019-05-03T09:32:45.078Z,4.50
2019-05-03T09:37:45.512Z,4.20
2019-05-03T09:40:15.060Z,4.40
2019-05-03T09:42:44.504Z,4.50
2019-05-03T09:45:15.369Z,4.62
2019-05-03T09:47:44.854Z,4.85
2019-05-03T09:50:15.612Z,4.53
2019-05-03T09:52:46.972Z,4.40
2019-05-03T09:55:20.846Z,4.00
2019-05-03T09:57:49.442Z,4.40
2019-05-03T10:00:19.151Z,4.70
2019-05-03T10:02:47.739Z,3.87
2019-05-03T10:05:16.818Z,3.77
2019-05-03T10:07:45.747Z,3.98
2019-05-03T10:10:15.388Z,3.80
2019-05-03T10:12:44.161Z,4.27
2019-05-03T10:15:17.469Z,3.67
2019-05-03T10:17:59.533Z,4.28
2019-05-03T10:20:28.175Z,3.25
2019-05-03T10:23:02.442Z,3.85
2019-05-03T10:25:32.357Z,3.40
2019-05-03T10:28:02.171Z,3.77
2019-05-03T10:30:35.464Z,4.30
2019-05-03T10:33:12.149Z,3.50
2019-05-03T10:35:45.153Z,3.65
2019-05-03T10:38:15.124Z,3.65
2019-05-03T10:40:45.251Z,3.40
2019-05-03T10:43:14.127Z,3.92
2019-05-03T10:45:44.886Z,3.90
2019-05-03T10:48:15.461Z,3.80
2019-05-03T10:50:43.855Z,3.90
2019-05-03T10:53:34.806Z,4.25
2019-05-03T10:56:32.875Z,3.17
2019-05-03T10:59:03.522Z,3.15
2019-05-03T11:04:14.789Z,2.55
2019-05-03T11:06:45.524Z,3.40
2019-05-03T11:09:15.225Z,2.40
2019-05-03T11:11:45.375Z,2.35
2019-05-03T11:14:14.972Z,3.12
2019-05-03T11:16:45.763Z,3.15
2019-05-03T11:19:14.605Z,2.77
2019-05-03T11:21:45.296Z,2.77
2019-05-03T11:29:15.864Z,2.37
2019-05-03T11:31:55.833Z,4.62
2019-05-03T11:34:30.102Z,2.70
2019-05-03T11:37:25.745Z,2.62
2019-05-03T11:39:55.831Z,2.85
2019-05-03T11:42:24.576Z,3.70
2019-05-03T11:44:53.396Z,2.85
2019-05-03T11:47:24.822Z,2.83
2019-05-03T11:49:54.581Z,2.67
2019-05-03T11:54:50.942Z,2.80
2019-05-03T11:57:26.275Z,2.52
2019-05-03T11:59:55.223Z,3.85
2019-05-03T12:03:01.688Z,2.42
2019-05-03T12:05:30.786Z,2.98
2019-05-03T12:07:59.520Z,2.85
2019-05-03T12:10:48.436Z,3.00
2019-05-03T12:13:05.046Z,3.30
2019-05-03T12:15:35.200Z,2.55
2019-05-03T12:18:07.218Z,2.00
2019-05-03T12:20:39.906Z,2.83
2019-05-03T12:23:10.189Z,2.50
2019-05-03T12:25:40.609Z,2.87
2019-05-03T12:28:11.125Z,2.60
2019-05-03T12:30:39.986Z,3.30
2019-05-03T12:33:08.795Z,2.37
2019-05-03T12:35:38.308Z,2.33
2019-05-03T12:38:08.839Z,2.40
2019-05-03T12:40:37.363Z,3.17
2019-05-03T12:43:06.353Z,3.00
2019-05-03T12:45:35.527Z,2.20
2019-05-03T12:48:05.192Z,2.33
2019-05-03T12:50:34.714Z,2.50
2019-05-03T12:53:04.874Z,2.60
2019-05-03T12:55:35.675Z,2.27
2019-05-03T12:58:06.439Z,2.02
2019-05-03T13:03:55.776Z,2.58
2019-05-03T13:06:25.483Z,2.33
2019-05-03T13:08:54.785Z,2.02
2019-05-03T13:11:25.158Z,2.15
2019-05-03T13:13:55.643Z,2.22
2019-05-03T13:16:24.728Z,1.80
2019-05-03T13:18:55.306Z,2.10
2019-05-03T13:21:25.286Z,2.75
2019-05-03T13:23:54.918Z,2.65
2019-05-03T13:26:25.431Z,2.00
2019-05-03T13:28:55.438Z,2.30
2019-05-03T13:31:25.066Z,2.00
2019-05-03T13:33:54.950Z,2.83
2019-05-03T13:36:25.375Z,2.50
2019-05-03T13:39:11.525Z,2.42
2019-05-03T13:41:26.760Z,2.52
2019-05-03T13:43:55.313Z,2.62
2019-05-03T13:46:24.666Z,2.27
2019-05-03T13:48:55.307Z,2.33
2019-05-03T13:51:25.349Z,1.62
2019-05-03T13:53:55.113Z,2.92
2019-05-03T13:56:24.679Z,3.15
2019-05-03T13:58:55.035Z,2.70
2019-05-03T14:01:25.177Z,2.22
2019-05-03T14:03:54.585Z,2.33
2019-05-03T14:06:24.564Z,2.67
2019-05-03T14:08:54.816Z,2.92
2019-05-03T14:11:25.355Z,2.72
2019-05-03T14:13:55.199Z,2.30
2019-05-03T14:16:24.032Z,2.20
2019-05-03T14:18:56.362Z,2.40
2019-05-03T14:21:35.339Z,2.58
2019-05-03T14:24:09.256Z,2.25
2019-05-03T14:26:38.899Z,2.58
2019-05-03T14:31:37.769Z,2.20
2019-05-03T14:34:06.682Z,2.30
2019-05-03T14:36:36.444Z,2.83
2019-05-03T14:39:10.222Z,1.98
2019-05-03T14:41:39.151Z,2.40
2019-05-03T14:44:07.632Z,2.20
2019-05-03T14:46:36.392Z,2.02
2019-05-03T14:49:05.755Z,2.62
2019-05-03T14:51:35.001Z,2.42
2019-05-03T14:54:05.635Z,2.10
2019-05-03T14:56:45.948Z,2.50
2019-05-03T14:59:22.950Z,2.45
2019-05-03T15:02:01.699Z,2.37
2019-05-03T15:04:30.086Z,2.83
2019-05-03T15:06:58.838Z,2.70
2019-05-03T15:09:27.429Z,2.08
2019-05-03T15:11:56.179Z,2.50
2019-05-03T15:14:25.165Z,2.20
2019-05-03T15:16:55.609Z,2.15
2019-05-03T15:19:25.354Z,2.05
2019-05-03T15:21:54.767Z,2.23
2019-05-03T15:24:25.222Z,3.15
2019-05-03T15:26:55.387Z,2.77
2019-05-03T15:29:25.842Z,2.55
2019-05-03T15:31:55.241Z,2.90
2019-05-03T15:34:23.832Z,1.90
2019-05-03T15:36:54.696Z,2.30
2019-05-03T15:39:25.564Z,2.37
2019-05-03T15:41:54.452Z,2.58
2019-05-03T15:44:41.076Z,2.92
2019-05-03T15:47:17.420Z,2.27
2019-05-03T15:49:46.053Z,2.42
2019-05-03T15:52:15.273Z,2.85
2019-05-03T15:54:44.541Z,2.33
2019-05-03T15:57:14.448Z,2.27
2019-05-03T15:59:44.496Z,2.30
2019-05-03T16:02:15.197Z,2.75
2019-05-03T16:07:14.423Z,2.27
2019-05-03T16:09:44.496Z,2.00
2019-05-03T16:12:14.510Z,2.80
2019-05-03T16:14:44.547Z,2.90
2019-05-03T16:17:14.726Z,3.08
2019-05-03T16:19:47.378Z,3.15
2019-05-03T16:22:14.463Z,3.08
2019-05-03T16:24:44.784Z,2.70
2019-05-03T16:27:47.922Z,2.72
2019-05-03T16:30:56.065Z,2.92
2019-05-03T16:33:28.024Z,2.52
2019-05-03T16:38:24.850Z,3.33
2019-05-03T16:40:55.364Z,2.65
2019-05-03T16:43:25.680Z,2.42
2019-05-03T16:45:55.227Z,2.85
2019-05-03T16:48:24.726Z,2.37
2019-05-03T16:50:53.482Z,3.10
2019-05-03T16:53:21.826Z,2.90
2019-05-03T16:55:50.257Z,3.67
2019-05-03T16:58:18.924Z,4.08
2019-05-03T17:00:47.661Z,2.95
2019-05-03T17:03:20.626Z,3.55
2019-05-03T17:06:07.164Z,2.55
2019-05-03T17:08:45.238Z,3.83
2019-05-03T17:11:15.883Z,3.25
2019-05-03T17:13:47.607Z,4.60
2019-05-03T17:16:15.098Z,3.25
2019-05-03T17:18:44.641Z,3.33
2019-05-03T17:21:16.011Z,3.20
2019-05-03T17:23:44.659Z,3.67
2019-05-03T17:26:14.978Z,3.62
2019-05-03T17:28:44.843Z,3.22
2019-05-03T17:31:15.214Z,3.75
2019-05-03T17:33:52.325Z,3.90
2019-05-03T17:36:15.317Z,3.15
2019-05-03T17:38:46.407Z,3.58
2019-05-03T17:41:39.309Z,3.45
2019-05-03T17:44:14.418Z,4.08
2019-05-03T17:46:42.999Z,4.97
2019-05-03T17:49:12.196Z,3.90
2019-05-03T17:51:52.949Z,4.10
2019-05-03T17:57:44.573Z,4.08
2019-05-03T18:00:34.958Z,5.60
2019-05-03T18:03:05.892Z,6.03
2019-05-03T18:08:29.076Z,7.08
2019-05-03T18:11:19.802Z,7.58
2019-05-03T18:16:21.365Z,6.40
2019-05-03T18:18:49.752Z,6.20
2019-05-03T18:21:18.705Z,7.15
2019-05-03T18:23:47.418Z,7.65
2019-05-03T18:26:15.951Z,7.10
2019-05-03T18:28:44.768Z,7.03
2019-05-03T18:31:14.630Z,7.60
2019-05-03T18:33:44.324Z,7.72
2019-05-03T18:36:14.748Z,7.33
2019-05-03T18:38:44.621Z,6.28
2019-05-03T18:41:13.985Z,6.58
2019-05-03T18:44:02.560Z,7.10
2019-05-03T18:46:34.823Z,5.75
2019-05-03T18:49:04.506Z,5.95
2019-05-03T18:51:34.368Z,5.95
2019-05-03T18:54:05.401Z,5.75
2019-05-03T18:56:34.682Z,6.05
2019-05-03T18:59:05.162Z,4.30
2019-05-03T19:01:34.743Z,4.87
2019-05-03T19:04:34.121Z,5.05
2019-05-03T19:07:04.288Z,4.53
2019-05-03T19:12:31.881Z,4.35
2019-05-03T19:15:01.057Z,5.50
2019-05-03T19:17:51.684Z,4.60
2019-05-03T19:20:20.286Z,4.58
2019-05-03T19:22:48.849Z,4.25
2019-05-03T19:25:17.629Z,4.00
2019-05-03T19:27:46.227Z,3.75
2019-05-03T19:30:16.459Z,4.05
2019-05-03T19:32:45.459Z,3.42
2019-05-03T19:35:15.710Z,3.98
2019-05-03T19:37:46.557Z,4.50
2019-05-03T19:42:44.735Z,3.52
2019-05-03T19:45:15.363Z,4.17
2019-05-03T19:47:44.772Z,4.12
2019-05-03T19:50:15.521Z,4.85
2019-05-03T19:53:16.082Z,4.80
2019-05-03T19:55:50.182Z,5.80
2019-05-03T19:58:15.629Z,7.35
2019-05-03T20:01:00.391Z,10.80
2019-05-03T20:03:45.697Z,10.15
2019-05-03T20:06:26.812Z,10.63
2019-05-03T20:08:59.167Z,8.33
2019-05-03T20:11:37.734Z,7.05
2019-05-03T20:14:06.449Z,8.25
2019-05-03T20:16:35.174Z,7.80
2019-05-03T20:19:17.247Z,9.28
2019-05-03T20:21:35.278Z,6.15
2019-05-03T20:24:05.590Z,6.33
2019-05-03T20:26:35.364Z,7.00
2019-05-03T20:29:05.011Z,6.45
2019-05-03T20:31:35.199Z,7.15
2019-05-03T20:34:05.372Z,7.30
2019-05-03T20:36:35.088Z,8.93
2019-05-03T20:39:05.509Z,9.68
2019-05-03T20:41:35.516Z,10.65
2019-05-03T20:44:19.714Z,9.95
2019-05-03T20:47:01.120Z,9.75
2019-05-03T20:49:29.513Z,10.38
2019-05-03T20:51:57.883Z,10.25
2019-05-03T20:54:26.873Z,12.50
2019-05-03T20:56:55.880Z,14.03
2019-05-03T20:59:25.309Z,15.30
2019-05-03T21:01:54.626Z,17.23
2019-05-03T21:04:24.715Z,17.35
2019-05-03T21:06:55.208Z,21.90
2019-05-03T21:09:23.884Z,19.90
2019-05-03T21:11:52.576Z,21.55
2019-05-03T21:14:21.254Z,18.12
2019-05-03T21:17:05.644Z,19.92
2019-05-03T21:19:51.878Z,20.95
2019-05-03T21:22:24.939Z,23.40
2019-05-03T21:25:09.413Z,22.90
2019-05-03T21:27:38.208Z,25.27
2019-05-03T21:30:07.353Z,22.90
2019-05-03T21:32:35.909Z,20.85
2019-05-03T21:35:05.430Z,17.52
2019-05-03T21:37:35.409Z,15.75
2019-05-03T21:40:05.234Z,18.42
2019-05-03T21:42:35.086Z,17.50
2019-05-03T21:50:24.956Z,16.97
2019-05-03T21:52:57.620Z,15.72
2019-05-03T21:55:26.243Z,14.80
2019-05-03T21:57:55.336Z,15.13
2019-05-03T22:00:26.723Z,14.78
2019-05-03T22:02:56.740Z,14.45
2019-05-03T22:05:26.485Z,15.80
2019-05-03T22:07:55.758Z,15.23
2019-05-03T22:10:25.562Z,15.00
2019-05-03T22:12:54.548Z,15.13
2019-05-03T22:15:37.014Z,13.13
2019-05-03T22:18:20.459Z,12.50
2019-05-03T22:20:55.842Z,14.15
2019-05-03T22:23:59.080Z,15.25
2019-05-03T22:26:45.860Z,13.85
2019-05-03T22:29:17.245Z,12.73
2019-05-03T22:31:45.878Z,14.13
2019-05-03T22:34:15.206Z,13.40
2019-05-03T22:36:44.524Z,12.65
2019-05-03T22:39:15.780Z,14.90
2019-05-03T22:41:44.490Z,13.20
2019-05-03T22:44:17.083Z,13.45
2019-05-03T22:46:46.561Z,13.20
2019-05-03T22:49:17.250Z,13.18
2019-05-03T22:51:46.125Z,13.55
2019-05-03T22:54:15.371Z,12.80
2019-05-03T22:56:44.802Z,13.00
2019-05-03T22:59:14.755Z,12.98
2019-05-03T23:01:45.502Z,13.15
2019-05-03T23:04:14.673Z,13.90
2019-05-03T23:06:46.833Z,12.45
2019-05-03T23:09:15.891Z,12.98
2019-05-03T23:11:45.113Z,12.05
2019-05-03T23:14:15.097Z,14.10
2019-05-03T23:16:44.819Z,12.98
2019-05-03T23:19:14.990Z,12.98
2019-05-03T23:21:54.467Z,12.95
2019-05-03T23:24:24.674Z,14.40
2019-05-03T23:26:53.584Z,13.50
2019-05-03T23:29:22.284Z,13.05
2019-05-03T23:31:51.254Z,13.85
2019-05-03T23:34:19.978Z,13.95
2019-05-03T23:36:48.624Z,14.53
2019-05-03T23:39:17.645Z,14.03
2019-05-03T23:41:45.985Z,15.20
2019-05-03T23:44:15.170Z,12.33
2019-05-03T23:46:54.630Z,12.65
2019-05-03T23:49:25.272Z,11.63
2019-05-03T23:51:56.462Z,10.93
2019-05-03T23:54:25.120Z,12.65
2019-05-03T23:56:54.722Z,13.48
2019-05-03T23:59:23.724Z,13.88
